Terminal Aerodrome Forecast
Issued by NWS

Home | Current Version | Previous Version | Text Only | Print | Product List | Glossary On
Versions: 1 2 3 4 5 6 7 8 9 10 11 12 13 14 15 16 17 18 19 20 21 22 23 24 25 26 27 28 29 30 31 32 33 34 35 36 37 38 39 40 41 42 43 44 45 46 47 48 49 50
000
FTUS43 KMKX 311144
TAFENW
TAF
KENW 311144Z 3112/0112 VRB03KT 1/4SM FG BKN002
     FM311300 00000KT 2SM BR FEW002
     FM311500 VRB03KT P6SM FEW015
     FM311700 17005KT P6SM FEW250
     FM010400 17004KT 5SM BR FEW250
     FM010600 19004KT 3SM BR FEW250
     FM011000 21004KT 2SM BR FEW200=

USA.gov is the U.S. government's official web portal to all federal, state and local government web resources and services.